Maple Plain, Minnesota
Current Conditions -  °F | °C
As of 6:55 AM on Saturday 01 Nov 2014 (Local Time) from KCFE Reporting Station
Clear Clear  
Wind Chill: 23°   Ceiling: Unl
Heat Index: 23°   Visibility: 10mi
Dew Point: 17°   Wind: 3mph
Humidity: 77%   Direction: 130°SE
Pressure: 30.43"   Gusts: NA
Location:  45.01°N, 93.66°W
Report Text: KCFE 011155Z AUTO 13003KT 10SM CLR M05/M08 A3043 RMK AO2 T10501084 11037 21065
Loading
Personal Weather Stations






























Interactive Weather Map
Tropical Storm Tracking
New forecast layout! Learn more

10-Day Weather Forecast

Advertisements
Track Severe Weather on mobile